createdAt,value
2019-03-17T00:00:59.423Z,9.03
2019-03-17T00:03:27.596Z,11.63
2019-03-17T00:05:55.782Z,9.83
2019-03-17T00:08:23.918Z,9.87
2019-03-17T00:10:52.802Z,11.47
2019-03-17T00:13:21.105Z,11.17
2019-03-17T00:15:49.164Z,10.77
2019-03-17T00:18:17.269Z,10.07
2019-03-17T00:20:45.335Z,8.97
2019-03-17T00:23:13.506Z,12.13
2019-03-17T00:25:41.757Z,8.93
2019-03-17T00:28:09.833Z,8.63
2019-03-17T00:30:37.927Z,9.90
2019-03-17T00:33:06.042Z,10.60
2019-03-17T00:35:34.103Z,11.73
2019-03-17T00:38:02.223Z,9.70
2019-03-17T00:40:30.506Z,10.20
2019-03-17T00:42:58.733Z,8.63
2019-03-17T00:45:26.946Z,9.37
2019-03-17T00:47:55.071Z,9.50
2019-03-17T00:50:23.320Z,9.97
2019-03-17T00:52:54.241Z,9.53
2019-03-17T00:55:22.305Z,11.27
2019-03-17T00:57:50.384Z,7.70
2019-03-17T01:00:19.139Z,9.40
2019-03-17T01:02:47.196Z,7.90
2019-03-17T01:05:15.504Z,11.00
2019-03-17T01:07:44.488Z,8.80
2019-03-17T01:10:12.732Z,8.50
2019-03-17T01:12:40.996Z,10.47
2019-03-17T01:15:09.052Z,11.13
2019-03-17T01:17:37.131Z,7.43
2019-03-17T01:20:05.350Z,8.07
2019-03-17T01:22:33.475Z,8.17
2019-03-17T01:25:01.677Z,6.97
2019-03-17T01:27:29.774Z,7.60
2019-03-17T01:29:57.974Z,9.33
2019-03-17T01:32:26.024Z,7.50
2019-03-17T01:34:54.119Z,9.07
2019-03-17T01:37:22.211Z,6.23
2019-03-17T01:39:50.251Z,6.43
2019-03-17T01:42:18.592Z,8.17
2019-03-17T01:44:46.769Z,9.27
2019-03-17T01:47:14.896Z,6.40
2019-03-17T01:49:42.927Z,6.77
2019-03-17T01:52:10.986Z,9.33
2019-03-17T01:54:39.087Z,7.77
2019-03-17T01:57:07.161Z,7.73
2019-03-17T01:59:35.223Z,5.97
2019-03-17T02:02:03.371Z,9.13
2019-03-17T02:04:31.535Z,7.50
2019-03-17T02:06:59.622Z,7.73
2019-03-17T02:09:27.847Z,6.90
2019-03-17T02:11:55.942Z,6.90
2019-03-17T02:14:23.987Z,7.13
2019-03-17T02:16:52.093Z,7.40
2019-03-17T02:19:20.440Z,8.37
2019-03-17T02:21:48.595Z,9.27
2019-03-17T02:24:16.777Z,6.03
2019-03-17T02:26:44.862Z,7.90
2019-03-17T02:29:15.376Z,10.17
2019-03-17T02:31:43.478Z,10.03
2019-03-17T02:34:12.255Z,7.77
2019-03-17T02:36:40.981Z,8.87
2019-03-17T02:39:09.030Z,8.13
2019-03-17T02:41:37.097Z,8.00
2019-03-17T02:44:05.196Z,8.53
2019-03-17T02:46:33.295Z,9.73
2019-03-17T02:49:02.424Z,6.73
2019-03-17T02:51:30.483Z,10.57
2019-03-17T02:53:59.119Z,5.93
2019-03-17T02:56:27.192Z,8.67
2019-03-17T02:58:55.305Z,14.93
2019-03-17T03:01:23.427Z,9.37
2019-03-17T03:03:51.665Z,11.00
2019-03-17T03:06:20.058Z,8.63
2019-03-17T03:08:48.166Z,13.67
2019-03-17T03:11:16.277Z,10.40
2019-03-17T03:13:44.364Z,9.17
2019-03-17T03:16:12.420Z,9.30
2019-03-17T03:18:40.517Z,9.80
2019-03-17T03:21:08.582Z,7.13
2019-03-17T03:23:37.500Z,5.90
2019-03-17T03:26:05.871Z,9.47
2019-03-17T03:28:34.106Z,6.10
2019-03-17T03:31:02.131Z,8.33
2019-03-17T03:33:30.186Z,4.53
2019-03-17T03:36:10.202Z,8.60
2019-03-17T03:38:28.814Z,5.83
2019-03-17T03:40:56.981Z,8.90
2019-03-17T03:43:26.394Z,6.77
2019-03-17T03:45:55.479Z,4.27
2019-03-17T03:48:23.962Z,7.30
2019-03-17T03:50:52.031Z,5.33
2019-03-17T03:53:20.103Z,5.23
2019-03-17T03:55:48.996Z,6.13
2019-03-17T03:58:17.707Z,4.57
2019-03-17T04:00:45.967Z,8.67
2019-03-17T04:03:14.244Z,6.90
2019-03-17T04:05:43.102Z,5.27
2019-03-17T04:08:11.170Z,5.60
2019-03-17T04:10:39.343Z,7.23
2019-03-17T04:13:07.435Z,9.63
2019-03-17T04:15:35.816Z,6.97
2019-03-17T04:18:03.978Z,7.73
2019-03-17T04:20:32.122Z,8.10
2019-03-17T04:23:00.218Z,8.73
2019-03-17T04:25:28.314Z,7.43
2019-03-17T04:27:56.386Z,7.30
2019-03-17T04:30:24.498Z,6.73
2019-03-17T04:32:55.571Z,9.83
2019-03-17T04:35:23.734Z,6.93
2019-03-17T04:37:51.935Z,4.70
2019-03-17T04:40:20.130Z,5.93
2019-03-17T04:42:48.183Z,8.27
2019-03-17T04:45:16.269Z,8.90
2019-03-17T04:47:44.352Z,9.90
2019-03-17T04:50:12.423Z,7.80
2019-03-17T04:52:40.513Z,12.30
2019-03-17T04:55:08.698Z,7.73
2019-03-17T04:57:36.855Z,6.87
2019-03-17T05:00:05.393Z,8.00
2019-03-17T05:02:33.489Z,9.40
2019-03-17T05:05:02.478Z,5.37
2019-03-17T05:07:30.700Z,10.60
2019-03-17T05:09:58.759Z,5.83
2019-03-17T05:12:28.405Z,10.60
2019-03-17T05:14:56.607Z,8.53
2019-03-17T05:17:24.663Z,7.83
2019-03-17T05:19:52.749Z,7.20
2019-03-17T05:22:20.871Z,5.77
2019-03-17T05:24:48.985Z,5.33
2019-03-17T05:27:17.088Z,7.67
2019-03-17T05:29:45.198Z,9.30
2019-03-17T05:32:13.256Z,8.70
2019-03-17T05:34:41.564Z,6.53
2019-03-17T05:37:09.653Z,8.00
2019-03-17T05:39:37.767Z,10.40
2019-03-17T05:42:06.056Z,6.23
2019-03-17T05:44:34.107Z,7.90
2019-03-17T05:47:02.697Z,10.47
2019-03-17T05:49:30.773Z,5.37
2019-03-17T05:51:58.930Z,3.60
2019-03-17T05:54:27.031Z,3.17
2019-03-17T05:56:55.127Z,5.27
2019-03-17T05:59:23.302Z,2.60
2019-03-17T06:01:51.710Z,4.87
2019-03-17T06:04:19.776Z,5.57
2019-03-17T06:06:47.862Z,3.53
2019-03-17T06:09:16.352Z,3.67
2019-03-17T06:11:44.427Z,1.93
2019-03-17T06:14:12.597Z,1.33
2019-03-17T06:16:40.708Z,1.50
2019-03-17T06:19:08.762Z,2.73
2019-03-17T06:21:36.859Z,2.37
2019-03-17T06:24:05.290Z,3.77
2019-03-17T06:26:33.400Z,2.57
2019-03-17T06:29:01.409Z,3.53
2019-03-17T06:31:29.739Z,2.83
2019-03-17T06:33:57.908Z,1.53
2019-03-17T06:36:26.002Z,2.47
2019-03-17T06:38:54.093Z,3.00
2019-03-17T06:41:22.161Z,2.50
2019-03-17T06:43:50.265Z,2.57
2019-03-17T06:46:18.324Z,2.10
2019-03-17T06:48:46.544Z,3.47
2019-03-17T06:51:14.706Z,1.60
2019-03-17T06:53:55.521Z,4.53
2019-03-17T06:56:12.536Z,3.13
2019-03-17T06:58:40.609Z,3.33
2019-03-17T07:01:08.703Z,3.43
2019-03-17T07:03:36.875Z,2.47
2019-03-17T07:06:05.074Z,4.37
2019-03-17T07:08:33.248Z,3.57
2019-03-17T07:11:01.355Z,4.73
2019-03-17T07:13:29.453Z,2.43
2019-03-17T07:15:57.744Z,4.90
2019-03-17T07:18:25.812Z,5.77
2019-03-17T07:20:54.280Z,3.97
2019-03-17T07:23:22.386Z,4.43
2019-03-17T07:25:50.485Z,3.93
2019-03-17T07:28:18.588Z,3.53
2019-03-17T07:30:46.676Z,1.97
2019-03-17T07:33:15.042Z,2.07
2019-03-17T07:35:46.156Z,5.10
2019-03-17T07:38:12.912Z,3.93
2019-03-17T07:40:41.111Z,3.33
2019-03-17T07:43:09.171Z,4.20
2019-03-17T07:45:37.241Z,3.60
2019-03-17T07:48:05.335Z,2.77
2019-03-17T07:50:36.558Z,1.60
2019-03-17T07:53:04.891Z,2.37
2019-03-17T07:55:32.964Z,5.40
2019-03-17T07:58:01.120Z,4.77
2019-03-17T08:00:32.311Z,6.10
2019-03-17T08:02:59.069Z,2.77
2019-03-17T08:05:27.125Z,2.00
2019-03-17T08:07:55.423Z,2.57
2019-03-17T08:10:23.695Z,4.07
2019-03-17T08:12:51.776Z,3.00
2019-03-17T08:15:19.871Z,1.60
2019-03-17T08:17:47.943Z,2.87
2019-03-17T08:20:18.337Z,2.50
2019-03-17T08:22:46.459Z,4.40
2019-03-17T08:25:14.588Z,4.57
2019-03-17T08:27:42.666Z,3.83
2019-03-17T08:30:11.608Z,3.10
2019-03-17T08:32:41.202Z,2.30
2019-03-17T08:35:09.707Z,4.40
2019-03-17T08:37:37.827Z,5.00
2019-03-17T08:40:06.485Z,1.93
2019-03-17T08:42:34.588Z,4.73
2019-03-17T08:45:02.675Z,2.53
2019-03-17T08:47:30.893Z,4.60
2019-03-17T08:49:58.948Z,2.90
2019-03-17T08:52:27.144Z,2.20
2019-03-17T08:54:55.259Z,5.57
2019-03-17T08:57:23.333Z,3.97
2019-03-17T08:59:51.399Z,4.90
2019-03-17T09:02:19.494Z,5.80
2019-03-17T09:04:47.581Z,6.23
2019-03-17T09:07:15.663Z,6.03
2019-03-17T09:09:43.740Z,4.90
2019-03-17T09:12:12.057Z,2.63
2019-03-17T09:14:40.234Z,2.97
2019-03-17T09:17:14.102Z,5.33
2019-03-17T09:19:38.101Z,4.67
2019-03-17T09:22:06.222Z,4.03
2019-03-17T09:24:34.299Z,4.33
2019-03-17T09:27:02.499Z,5.03
2019-03-17T09:29:30.694Z,4.73
2019-03-17T09:31:58.823Z,3.77
2019-03-17T09:34:26.890Z,5.73
2019-03-17T09:36:54.956Z,4.77
2019-03-17T09:39:23.067Z,5.53
2019-03-17T09:41:51.236Z,6.37
2019-03-17T09:44:19.310Z,6.20
2019-03-17T09:46:47.517Z,1.63
2019-03-17T09:49:15.622Z,1.77
2019-03-17T09:51:43.692Z,2.60
2019-03-17T09:54:11.787Z,1.67
2019-03-17T09:56:40.173Z,2.03
2019-03-17T09:59:08.317Z,2.00
2019-03-17T10:01:36.393Z,1.00
2019-03-17T10:04:04.596Z,2.03
2019-03-17T10:06:32.793Z,0.87
2019-03-17T10:09:00.979Z,1.37
2019-03-17T10:11:29.049Z,2.70
2019-03-17T10:13:57.197Z,1.73
2019-03-17T10:16:25.262Z,1.20
2019-03-17T10:18:53.466Z,3.20
2019-03-17T10:21:21.532Z,3.13
2019-03-17T10:23:49.783Z,2.17
2019-03-17T10:26:17.906Z,1.93
2019-03-17T10:28:45.986Z,2.77
2019-03-17T10:31:14.182Z,1.27
2019-03-17T10:33:42.283Z,1.80
2019-03-17T10:36:10.466Z,4.40
2019-03-17T10:38:38.567Z,2.27
2019-03-17T10:41:06.735Z,1.20
2019-03-17T10:43:34.797Z,1.43
2019-03-17T10:46:02.909Z,1.57
2019-03-17T10:48:31.024Z,2.07
2019-03-17T10:50:59.128Z,2.47
2019-03-17T10:53:27.264Z,1.73
2019-03-17T10:55:55.322Z,2.53
2019-03-17T10:58:23.455Z,2.40
2019-03-17T11:00:51.572Z,2.27
2019-03-17T11:03:19.693Z,1.60
2019-03-17T11:05:47.803Z,1.60
2019-03-17T11:08:15.911Z,1.83
2019-03-17T11:10:44.011Z,1.70
2019-03-17T11:13:12.134Z,1.20
2019-03-17T11:15:40.310Z,3.30
2019-03-17T11:18:08.441Z,2.17
2019-03-17T11:20:36.671Z,2.07
2019-03-17T11:23:04.789Z,1.20
2019-03-17T11:25:33.163Z,2.10
2019-03-17T11:28:01.299Z,2.87
2019-03-17T11:30:29.522Z,2.00
2019-03-17T11:32:57.711Z,2.27
2019-03-17T11:35:25.899Z,2.60
2019-03-17T11:37:54.101Z,1.33
2019-03-17T11:40:22.427Z,3.23
2019-03-17T11:42:50.636Z,3.80
2019-03-17T11:45:18.727Z,2.23
2019-03-17T11:47:46.970Z,2.83
2019-03-17T11:50:15.334Z,2.17
2019-03-17T11:52:43.676Z,4.80
2019-03-17T11:55:12.207Z,4.10
2019-03-17T11:57:40.410Z,4.23
2019-03-17T12:00:09.407Z,6.10
2019-03-17T12:02:37.607Z,3.87
2019-03-17T12:05:05.960Z,2.87
2019-03-17T12:07:34.178Z,5.30
2019-03-17T12:10:02.831Z,4.20
2019-03-17T12:12:31.035Z,4.83
2019-03-17T12:14:59.144Z,5.83
2019-03-17T12:17:27.200Z,5.20
2019-03-17T12:19:55.284Z,5.13
2019-03-17T12:22:23.436Z,6.73
2019-03-17T12:24:51.568Z,6.63
2019-03-17T12:27:19.698Z,7.13
2019-03-17T12:29:47.890Z,3.10
2019-03-17T12:32:15.984Z,4.83
2019-03-17T12:34:44.232Z,6.77
2019-03-17T12:37:12.348Z,7.43
2019-03-17T12:39:40.535Z,6.30
2019-03-17T12:42:09.003Z,5.13
2019-03-17T12:44:37.399Z,3.97
2019-03-17T12:47:05.543Z,6.00
2019-03-17T12:49:33.792Z,2.17
2019-03-17T12:52:02.016Z,3.03
2019-03-17T12:54:30.172Z,3.43
2019-03-17T12:56:58.430Z,3.03
2019-03-17T12:59:26.569Z,6.13
2019-03-17T13:01:54.672Z,3.03
2019-03-17T13:04:25.121Z,3.80
2019-03-17T13:06:53.216Z,3.93
2019-03-17T13:09:21.339Z,4.07
2019-03-17T13:11:49.502Z,3.70
2019-03-17T13:14:17.663Z,6.80
2019-03-17T13:16:46.924Z,3.47
2019-03-17T13:19:15.055Z,3.07
2019-03-17T13:21:43.206Z,4.10
2019-03-17T13:24:11.281Z,4.13
2019-03-17T13:26:39.887Z,3.00
2019-03-17T13:29:08.492Z,5.70
2019-03-17T13:31:36.601Z,6.20
2019-03-17T13:34:04.709Z,2.60
2019-03-17T13:36:32.985Z,4.47
2019-03-17T13:39:01.108Z,2.90
2019-03-17T13:41:29.273Z,4.27
2019-03-17T13:43:57.464Z,2.93
2019-03-17T13:46:25.579Z,5.17
2019-03-17T13:48:53.812Z,6.27
2019-03-17T13:51:21.927Z,4.63
2019-03-17T13:53:50.773Z,2.93
2019-03-17T13:56:18.877Z,3.60
2019-03-17T13:58:47.128Z,8.77
2019-03-17T14:01:15.270Z,5.17
2019-03-17T14:03:43.472Z,3.00
2019-03-17T14:06:11.642Z,3.07
2019-03-17T14:08:39.901Z,3.40
2019-03-17T14:11:08.142Z,5.43
2019-03-17T14:13:36.465Z,5.30
2019-03-17T14:16:05.211Z,3.83
2019-03-17T14:18:33.404Z,3.27
2019-03-17T14:21:01.772Z,4.63
2019-03-17T14:23:29.956Z,4.77
2019-03-17T14:25:58.154Z,3.10
2019-03-17T14:28:26.585Z,2.70
2019-03-17T14:30:54.804Z,3.67
2019-03-17T14:33:22.954Z,5.97
2019-03-17T14:35:51.157Z,4.60
2019-03-17T14:38:19.288Z,4.20
2019-03-17T14:40:53.259Z,4.40
2019-03-17T14:43:18.255Z,3.63
2019-03-17T14:45:46.556Z,6.10
2019-03-17T14:48:14.630Z,5.53
2019-03-17T14:50:43.146Z,6.27
2019-03-17T14:53:11.352Z,3.90
2019-03-17T14:55:39.676Z,4.27
2019-03-17T14:58:07.836Z,3.67
2019-03-17T15:00:36.203Z,3.50
2019-03-17T15:03:04.332Z,3.10
2019-03-17T15:05:32.473Z,5.50
2019-03-17T15:08:02.477Z,4.60
2019-03-17T15:10:31.640Z,1.80
2019-03-17T15:12:59.741Z,4.47
2019-03-17T15:15:28.032Z,3.73
2019-03-17T15:17:56.272Z,4.20
2019-03-17T15:20:24.410Z,4.90
2019-03-17T15:22:52.639Z,4.17
2019-03-17T15:25:20.871Z,4.70
2019-03-17T15:27:49.146Z,6.83
2019-03-17T15:30:18.416Z,6.17
2019-03-17T15:32:46.684Z,4.77
2019-03-17T15:35:14.837Z,5.47
2019-03-17T15:37:43.159Z,5.67
2019-03-17T15:40:11.515Z,4.70
2019-03-17T15:42:39.684Z,3.73
2019-03-17T15:45:08.843Z,7.20
2019-03-17T15:47:37.022Z,4.83
2019-03-17T15:50:05.376Z,4.53
2019-03-17T15:52:33.501Z,4.30
2019-03-17T15:55:02.321Z,4.90
2019-03-17T15:57:30.452Z,5.33
2019-03-17T15:59:58.864Z,3.13
2019-03-17T16:02:27.199Z,5.77
2019-03-17T16:04:55.741Z,4.63
2019-03-17T16:07:23.867Z,5.97
2019-03-17T16:09:54.878Z,4.63
2019-03-17T16:12:23.014Z,4.80
2019-03-17T16:14:51.570Z,4.57
2019-03-17T16:17:19.722Z,4.27
2019-03-17T16:19:47.916Z,3.73
2019-03-17T16:22:16.254Z,6.80
2019-03-17T16:24:45.244Z,2.97
2019-03-17T16:27:15.594Z,5.43
2019-03-17T16:29:44.076Z,7.47
2019-03-17T16:32:12.236Z,6.17
2019-03-17T16:34:40.407Z,6.73
2019-03-17T16:37:08.689Z,4.63
2019-03-17T16:39:36.914Z,5.37
2019-03-17T16:42:05.127Z,5.00
2019-03-17T16:44:33.461Z,4.67
2019-03-17T16:47:02.476Z,5.07
2019-03-17T16:49:30.582Z,6.97
2019-03-17T16:51:59.112Z,4.47
2019-03-17T16:54:27.344Z,6.40
2019-03-17T16:56:55.616Z,5.10
2019-03-17T16:59:24.762Z,2.80
2019-03-17T17:01:53.269Z,3.70
2019-03-17T17:04:22.066Z,5.53
2019-03-17T17:06:50.365Z,3.23
2019-03-17T17:09:18.892Z,5.83
2019-03-17T17:11:56.740Z,3.30
2019-03-17T17:14:17.171Z,3.57
2019-03-17T17:16:45.441Z,5.13
2019-03-17T17:19:13.695Z,4.80
2019-03-17T17:21:41.977Z,3.60
2019-03-17T17:24:10.140Z,3.43
2019-03-17T17:26:38.389Z,4.73
2019-03-17T17:29:06.689Z,7.70
2019-03-17T17:31:35.875Z,5.10
2019-03-17T17:34:04.194Z,6.77
2019-03-17T17:36:32.809Z,7.33
2019-03-17T17:39:02.237Z,3.40
2019-03-17T17:41:30.404Z,5.77
2019-03-17T17:43:58.523Z,4.23
2019-03-17T17:46:26.705Z,4.07
2019-03-17T17:48:54.865Z,3.97
2019-03-17T17:51:23.086Z,4.97
2019-03-17T17:53:51.355Z,5.87
2019-03-17T17:56:19.591Z,7.00
2019-03-17T17:58:48.962Z,4.80
2019-03-17T18:01:18.059Z,6.87
2019-03-17T18:03:51.631Z,4.83
2019-03-17T18:06:16.078Z,8.80
2019-03-17T18:08:44.360Z,8.30
2019-03-17T18:11:12.507Z,5.40
2019-03-17T18:13:43.044Z,5.50
2019-03-17T18:16:11.202Z,4.73
2019-03-17T18:18:39.382Z,4.33
2019-03-17T18:21:07.942Z,5.53
2019-03-17T18:23:36.382Z,4.40
2019-03-17T18:26:05.607Z,3.77
2019-03-17T18:28:35.450Z,5.77
2019-03-17T18:31:03.666Z,6.67
2019-03-17T18:33:32.244Z,7.73
2019-03-17T18:36:00.507Z,4.53
2019-03-17T18:38:28.724Z,5.47
2019-03-17T18:40:57.093Z,5.23
2019-03-17T18:43:26.058Z,4.73
2019-03-17T18:45:54.584Z,7.33
2019-03-17T18:48:23.669Z,4.53
2019-03-17T18:50:51.993Z,4.80
2019-03-17T18:53:20.330Z,7.43
2019-03-17T18:55:48.593Z,6.87
2019-03-17T18:58:16.935Z,4.47
2019-03-17T19:00:45.136Z,5.67
2019-03-17T19:03:13.429Z,8.10
2019-03-17T19:05:41.589Z,6.37
2019-03-17T19:08:10.644Z,5.23
2019-03-17T19:10:38.910Z,4.80
2019-03-17T19:13:07.271Z,4.60
2019-03-17T19:15:35.600Z,3.53
2019-03-17T19:18:03.718Z,8.10
2019-03-17T19:20:32.013Z,6.07
2019-03-17T19:23:00.585Z,6.60
2019-03-17T19:25:29.040Z,5.47
2019-03-17T19:27:57.576Z,3.27
2019-03-17T19:30:25.825Z,6.00
2019-03-17T19:32:54.080Z,5.33
2019-03-17T19:35:22.394Z,7.07
2019-03-17T19:37:50.660Z,5.70
2019-03-17T19:40:19.072Z,5.47
2019-03-17T19:42:58.190Z,3.20
2019-03-17T19:45:17.237Z,4.00
2019-03-17T19:47:45.532Z,5.60
2019-03-17T19:50:14.616Z,5.93
2019-03-17T19:52:42.939Z,6.27
2019-03-17T19:55:11.492Z,7.07
2019-03-17T19:57:42.076Z,6.73
2019-03-17T20:00:11.298Z,4.33
2019-03-17T20:02:41.170Z,4.63
2019-03-17T20:05:09.480Z,7.43
2019-03-17T20:07:37.647Z,9.13
2019-03-17T20:10:06.751Z,6.80
2019-03-17T20:12:35.811Z,7.53
2019-03-17T20:15:04.824Z,7.77
2019-03-17T20:17:33.200Z,7.57
2019-03-17T20:20:03.321Z,7.57
2019-03-17T20:22:32.156Z,4.90
2019-03-17T20:25:02.548Z,10.00
2019-03-17T20:27:31.065Z,10.20
2019-03-17T20:29:59.317Z,3.47
2019-03-17T20:32:29.588Z,5.70
2019-03-17T20:34:57.894Z,5.43
2019-03-17T20:37:26.091Z,8.13
2019-03-17T20:39:54.348Z,5.30
2019-03-17T20:42:22.760Z,4.10
2019-03-17T20:44:51.048Z,5.63
2019-03-17T20:47:19.694Z,6.03
2019-03-17T20:49:47.862Z,7.40
2019-03-17T20:52:16.262Z,5.37
2019-03-17T20:54:45.614Z,5.30
2019-03-17T20:57:14.764Z,5.10
2019-03-17T20:59:43.033Z,5.13
2019-03-17T21:02:13.295Z,6.13
2019-03-17T21:04:41.894Z,3.67
2019-03-17T21:07:10.282Z,4.20
2019-03-17T21:09:38.418Z,2.90
2019-03-17T21:12:06.639Z,4.47
2019-03-17T21:14:35.702Z,5.60
2019-03-17T21:17:04.943Z,6.00
2019-03-17T21:19:33.199Z,4.33
2019-03-17T21:22:02.793Z,2.40
2019-03-17T21:24:30.941Z,7.60
2019-03-17T21:26:59.245Z,4.17
2019-03-17T21:29:27.715Z,3.30
2019-03-17T21:31:55.907Z,4.43
2019-03-17T21:34:24.206Z,3.40
2019-03-17T21:36:52.330Z,2.57
2019-03-17T21:39:20.460Z,2.70
2019-03-17T21:41:48.556Z,6.33
2019-03-17T21:44:16.695Z,4.63
2019-03-17T21:46:44.776Z,4.93
2019-03-17T21:49:12.891Z,6.63
2019-03-17T21:51:40.992Z,8.03
2019-03-17T21:54:09.320Z,3.70
2019-03-17T21:56:37.396Z,2.67
2019-03-17T21:59:05.562Z,4.90
2019-03-17T22:01:33.744Z,4.53
2019-03-17T22:04:01.931Z,5.50
2019-03-17T22:06:30.120Z,2.43
2019-03-17T22:08:58.307Z,4.87
2019-03-17T22:11:26.420Z,2.63
2019-03-17T22:13:54.509Z,3.43
2019-03-17T22:16:22.805Z,3.63
2019-03-17T22:18:50.869Z,6.30
2019-03-17T22:21:18.948Z,4.97
2019-03-17T22:23:47.341Z,5.70
2019-03-17T22:26:15.405Z,6.27
2019-03-17T22:28:43.465Z,4.20
2019-03-17T22:31:11.564Z,2.90
2019-03-17T22:33:39.670Z,2.80
2019-03-17T22:36:07.775Z,3.23
2019-03-17T22:38:35.857Z,5.47
2019-03-17T22:41:04.056Z,2.13
2019-03-17T22:43:32.139Z,4.63
2019-03-17T22:46:00.169Z,5.63
2019-03-17T22:48:28.384Z,4.20
2019-03-17T22:50:56.440Z,5.40
2019-03-17T22:53:24.528Z,2.20
2019-03-17T22:55:52.626Z,4.40
2019-03-17T22:58:20.699Z,4.30
2019-03-17T23:00:49.482Z,2.23
2019-03-17T23:03:17.548Z,4.63
2019-03-17T23:05:46.034Z,5.17
2019-03-17T23:08:14.098Z,3.90
2019-03-17T23:10:42.167Z,5.57
2019-03-17T23:13:10.525Z,4.10
2019-03-17T23:15:38.584Z,4.53
2019-03-17T23:18:06.799Z,4.57
2019-03-17T23:20:35.335Z,5.23
2019-03-17T23:23:03.434Z,2.80
2019-03-17T23:25:31.481Z,6.10
2019-03-17T23:27:59.787Z,9.20
2019-03-17T23:30:28.980Z,4.43
2019-03-17T23:32:57.040Z,6.50
2019-03-17T23:35:25.160Z,12.53
2019-03-17T23:37:53.248Z,2.97
2019-03-17T23:40:21.336Z,5.97
2019-03-17T23:42:49.451Z,8.87
2019-03-17T23:45:17.863Z,5.37
2019-03-17T23:47:46.021Z,5.57
2019-03-17T23:50:14.381Z,6.57
2019-03-17T23:52:42.541Z,7.33
2019-03-17T23:55:10.665Z,4.53
2019-03-17T23:57:38.826Z,6.03
